BLUO2: Blue River, Blue, OK

                                SHEF ID:       BLUO2     Blue River near Blue, OK
STATION TYPE:
Regulating: Stage = 21.00, Flow = 5001

PRECIP STAGE RIV-FLOW BAT-LOAD
in ft cfs volt
Ccp-Rev Ccp-Rev Ccp-Rev Ccp-Rev
(America/Chicago)
05/02 00:00 0.00 7.31 235 12.89
05/02 01:00 0.00 7.28 230 12.89
05/02 02:00 0.00 7.28 230 12.89
05/02 03:00 0.00 7.27 229 12.81
05/02 04:00 0.00 7.24 224 12.81
05/02 05:00 0.00 7.23 222 12.81
05/02 06:00 0.00 7.21 219 12.73
05/02 07:00 0.00 7.19 216 12.73
05/02 08:00 0.00 7.19 216 12.81
05/02 09:00 0.00 7.18 214 13.44
05/02 10:00 0.00 7.17 213 13.76
05/02 11:00 0.00 7.15 210 14.32
05/02 12:00 0.00 7.12 205 14.32
05/02 13:00 0.00 7.12 205 14.32
05/02 14:00 0.00 7.11 203 13.84
05/02 15:00 0.00 7.10 202 13.44
05/02 16:00 0.00 7.07 197 13.68
05/02 17:00 0.00 7.07 197 14.00
05/02 18:00 0.00 7.03 191 13.92
05/02 19:00 0.00 7.04 193 13.84
05/02 20:00 0.00 7.02 190 13.37
05/02 21:00 0.00 7.00 187 12.97
05/02 22:00 0.00 7.00 187 12.97
05/02 23:00 0.00 6.97 183 12.97
Data processed at Sun 03May2026 04:47 GMT

NOTICE: If you are parsing this page

Please convert to using our Data API. Starting early 2026 we will be migrating to: https://water.usace.army.mil with modern pages rendered in JavaScript. When this migration completes you will no longer be able to scrape this page! CWMSDataAPI (CDA)

Timeseries IDs (TSIDs)

TSIDs used from left to right in the data table
BLUE.Precip-Inc.Total.1Hour.1Hour.Ccp-Rev
BLUE.Stage.Inst.1Hour.0.Ccp-Rev
BLUE.Flow.Inst.1Hour.0.Ccp-Rev
BLUE.Volt-Battery Load.Inst.1Hour.0.Ccp-Rev

                            

All information presented herein is the property of the government of the United States of America and may be revised or deleted at any time without prior notice. Dissemination of this information without the expressed written consent of the Public Affairs Office, Tulsa District U.S. Army Corps of Engineers is strictly prohibited. These data are gathered electronically and, as presented, have NOT undergone any form of quality control. These data are NOT guaranteed to be valid or correct.